sensor_id;sensor_type;location;lat;lon;timestamp;pressure;altitude;pressure_sealevel;temperature;humidity
45403;BME280;47427;51.976;5.326;2022-10-04T00:05:58;102294.19;;;12.71;93.98
45403;BME280;47427;51.976;5.326;2022-10-04T00:09:35;102291.53;;;12.71;94.30
45403;BME280;47427;51.976;5.326;2022-10-04T00:13:06;102296.66;;;12.66;94.32
45403;BME280;47427;51.976;5.326;2022-10-04T00:16:38;102288.16;;;12.52;94.76
45403;BME280;47427;51.976;5.326;2022-10-04T00:42:57;102266.59;;;12.61;94.87
45403;BME280;47427;51.976;5.326;2022-10-04T00:46:22;102258.69;;;12.61;94.66
45403;BME280;47427;51.976;5.326;2022-10-04T00:49:53;102258.50;;;12.56;94.71
45403;BME280;47427;51.976;5.326;2022-10-04T00:54:16;102270.03;;;12.60;94.76
45403;BME280;47427;51.976;5.326;2022-10-04T00:57:44;102260.47;;;12.62;94.59
45403;BME280;47427;51.976;5.326;2022-10-04T01:01:09;102241.19;;;12.63;94.51
45403;BME280;47427;51.976;5.326;2022-10-04T01:05:02;102252.69;;;12.65;94.58
45403;BME280;47427;51.976;5.326;2022-10-04T01:12:15;102247.53;;;12.68;94.60
45403;BME280;47427;51.976;5.326;2022-10-04T01:22:49;102235.31;;;12.48;94.54
45403;BME280;47427;51.976;5.326;2022-10-04T01:29:56;102233.59;;;12.27;94.88
45403;BME280;47427;51.976;5.326;2022-10-04T01:33:19;102229.69;;;12.18;95.41
45403;BME280;47427;51.976;5.326;2022-10-04T01:36:43;102212.50;;;12.05;95.70
45403;BME280;47427;51.976;5.326;2022-10-04T01:40:09;102213.78;;;11.93;95.79
45403;BME280;47427;51.976;5.326;2022-10-04T01:43:36;102193.84;;;11.79;96.95
45403;BME280;47427;51.976;5.326;2022-10-04T01:47:07;102185.72;;;11.73;96.99
45403;BME280;47427;51.976;5.326;2022-10-04T01:51:02;102188.22;;;11.70;96.78
45403;BME280;47427;51.976;5.326;2022-10-04T01:54:34;102188.97;;;11.67;96.97
45403;BME280;47427;51.976;5.326;2022-10-04T02:02:06;102189.25;;;11.54;97.38
45403;BME280;47427;51.976;5.326;2022-10-04T02:05:37;102180.69;;;11.39;97.72
45403;BME280;47427;51.976;5.326;2022-10-04T02:09:12;102173.88;;;11.23;98.10
45403;BME280;47427;51.976;5.326;2022-10-04T02:12:37;102163.69;;;11.11;98.67
45403;BME280;47427;51.976;5.326;2022-10-04T02:16:09;102164.97;;;11.00;99.10
45403;BME280;47427;51.976;5.326;2022-10-04T02:19:36;102158.47;;;10.92;99.64
45403;BME280;47427;51.976;5.326;2022-10-04T02:23:00;102162.75;;;10.90;99.69
45403;BME280;47427;51.976;5.326;2022-10-04T02:26:26;102153.75;;;10.84;100.00
45403;BME280;47427;51.976;5.326;2022-10-04T02:29:49;102137.50;;;10.74;100.00
45403;BME280;47427;51.976;5.326;2022-10-04T02:33:30;102132.03;;;10.69;100.00
45403;BME280;47427;51.976;5.326;2022-10-04T02:36:53;102117.72;;;10.62;100.00
45403;BME280;47427;51.976;5.326;2022-10-04T02:40:20;102112.34;;;10.59;100.00
45403;BME280;47427;51.976;5.326;2022-10-04T02:44:14;102109.44;;;10.53;100.00
45403;BME280;47427;51.976;5.326;2022-10-04T02:47:50;102108.34;;;10.48;100.00
45403;BME280;47427;51.976;5.326;2022-10-04T02:58:40;102111.13;;;10.33;100.00
45403;BME280;47427;51.976;5.326;2022-10-04T03:02:29;102112.53;;;10.27;100.00
45403;BME280;47427;51.976;5.326;2022-10-04T03:06:17;102100.25;;;10.26;100.00
45403;BME280;47427;51.976;5.326;2022-10-04T03:09:41;102101.06;;;10.25;100.00
45403;BME280;47427;51.976;5.326;2022-10-04T03:13:04;102096.56;;;10.22;100.00
45403;BME280;47427;51.976;5.326;2022-10-04T03:16:37;102092.69;;;10.14;100.00
45403;BME280;47427;51.976;5.326;2022-10-04T03:20:03;102095.91;;;10.08;100.00
45403;BME280;47427;51.976;5.326;2022-10-04T03:23:47;102083.47;;;10.04;100.00
45403;BME280;47427;51.976;5.326;2022-10-04T03:27:20;102073.97;;;10.06;100.00
45403;BME280;47427;51.976;5.326;2022-10-04T03:30:45;102073.06;;;10.06;100.00
45403;BME280;47427;51.976;5.326;2022-10-04T03:34:20;102062.44;;;10.03;100.00
45403;BME280;47427;51.976;5.326;2022-10-04T03:37:44;102061.28;;;9.97;100.00
45403;BME280;47427;51.976;5.326;2022-10-04T03:41:09;102057.84;;;9.98;100.00
45403;BME280;47427;51.976;5.326;2022-10-04T03:44:33;102061.28;;;9.97;100.00
45403;BME280;47427;51.976;5.326;2022-10-04T03:48:04;102067.97;;;9.91;100.00
45403;BME280;47427;51.976;5.326;2022-10-04T03:51:28;102061.97;;;9.93;100.00
45403;BME280;47427;51.976;5.326;2022-10-04T03:54:53;102055.38;;;9.84;100.00
45403;BME280;47427;51.976;5.326;2022-10-04T03:58:17;102052.03;;;9.86;100.00
45403;BME280;47427;51.976;5.326;2022-10-04T04:02:21;102048.03;;;9.76;100.00
45403;BME280;47427;51.976;5.326;2022-10-04T04:05:53;102047.00;;;9.73;100.00
45403;BME280;47427;51.976;5.326;2022-10-04T04:09:46;102061.00;;;9.73;100.00
45403;BME280;47427;51.976;5.326;2022-10-04T04:13:42;102055.41;;;9.66;100.00
45403;BME280;47427;51.976;5.326;2022-10-04T04:17:39;102051.56;;;9.59;100.00
45403;BME280;47427;51.976;5.326;2022-10-04T04:21:03;102034.34;;;9.64;100.00
45403;BME280;47427;51.976;5.326;2022-10-04T04:24:29;102032.69;;;9.66;100.00
45403;BME280;47427;51.976;5.326;2022-10-04T04:28:06;102040.66;;;9.68;100.00
45403;BME280;47427;51.976;5.326;2022-10-04T04:31:42;102044.63;;;9.60;100.00
45403;BME280;47427;51.976;5.326;2022-10-04T04:35:29;102040.19;;;9.59;100.00
45403;BME280;47427;51.976;5.326;2022-10-04T04:38:52;102039.28;;;9.58;100.00
45403;BME280;47427;51.976;5.326;2022-10-04T04:42:33;102032.94;;;9.53;100.00
45403;BME280;47427;51.976;5.326;2022-10-04T04:45:57;102034.44;;;9.48;100.00
45403;BME280;47427;51.976;5.326;2022-10-04T04:49:21;102051.50;;;9.40;100.00
45403;BME280;47427;51.976;5.326;2022-10-04T04:53:05;102042.56;;;9.36;100.00
45403;BME280;47427;51.976;5.326;2022-10-04T04:56:29;102038.66;;;9.28;100.00
45403;BME280;47427;51.976;5.326;2022-10-04T04:59:57;102035.22;;;9.29;100.00
45403;BME280;47427;51.976;5.326;2022-10-04T05:03:21;102035.16;;;9.27;100.00
45403;BME280;47427;51.976;5.326;2022-10-04T05:06:46;102035.91;;;9.25;100.00
45403;BME280;47427;51.976;5.326;2022-10-04T05:10:33;102038.28;;;9.20;100.00
45403;BME280;47427;51.976;5.326;2022-10-04T05:17:31;102026.91;;;9.20;100.00
45403;BME280;47427;51.976;5.326;2022-10-04T05:21:02;102036.50;;;9.19;100.00
45403;BME280;47427;51.976;5.326;2022-10-04T05:24:32;102040.16;;;9.23;100.00
45403;BME280;47427;51.976;5.326;2022-10-04T05:27:56;102034.66;;;9.18;100.00
45403;BME280;47427;51.976;5.326;2022-10-04T05:31:49;102032.19;;;9.21;100.00
45403;BME280;47427;51.976;5.326;2022-10-04T05:35:19;102046.38;;;9.25;100.00
45403;BME280;47427;51.976;5.326;2022-10-04T05:38:56;102043.31;;;9.33;100.00
45403;BME280;47427;51.976;5.326;2022-10-04T05:42:38;102050.00;;;9.45;100.00
45403;BME280;47427;51.976;5.326;2022-10-04T05:49:53;102048.50;;;9.50;100.00
45403;BME280;47427;51.976;5.326;2022-10-04T05:53:29;102042.19;;;9.46;100.00
45403;BME280;47427;51.976;5.326;2022-10-04T05:57:38;102041.31;;;9.46;100.00
45403;BME280;47427;51.976;5.326;2022-10-04T06:01:38;102038.78;;;9.47;100.00
45403;BME280;47427;51.976;5.326;2022-10-04T06:09:24;102052.25;;;9.55;100.00
45403;BME280;47427;51.976;5.326;2022-10-04T06:24:25;102040.13;;;9.75;100.00
45403;BME280;47427;51.976;5.326;2022-10-04T06:31:51;102033.06;;;9.74;100.00
45403;BME280;47427;51.976;5.326;2022-10-04T06:46:54;102032.94;;;9.53;100.00
45403;BME280;47427;51.976;5.326;2022-10-04T07:01:37;102013.09;;;9.76;100.00
45403;BME280;47427;51.976;5.326;2022-10-04T07:05:02;102018.47;;;11.56;100.00
45403;BME280;47427;51.976;5.326;2022-10-04T07:08:42;102016.41;;;13.09;98.18
45403;BME280;47427;51.976;5.326;2022-10-04T07:12:11;102010.50;;;13.96;90.52
45403;BME280;47427;51.976;5.326;2022-10-04T07:15:51;102012.47;;;13.22;89.45
45403;BME280;47427;51.976;5.326;2022-10-04T07:19:30;102014.19;;;12.48;91.74
45403;BME280;47427;51.976;5.326;2022-10-04T07:22:59;102009.44;;;14.79;83.25
45403;BME280;47427;51.976;5.326;2022-10-04T07:26:49;102010.59;;;16.35;78.01
45403;BME280;47427;51.976;5.326;2022-10-04T07:30:19;102006.50;;;16.95;71.87
45403;BME280;47427;51.976;5.326;2022-10-04T07:33:49;102011.09;;;18.15;70.11
45403;BME280;47427;51.976;5.326;2022-10-04T07:37:14;102003.56;;;19.30;63.41
45403;BME280;47427;51.976;5.326;2022-10-04T07:40:53;102019.00;;;19.67;59.48
45403;BME280;47427;51.976;5.326;2022-10-04T07:47:49;101993.78;;;20.83;56.22
45403;BME280;47427;51.976;5.326;2022-10-04T07:56:04;102005.13;;;22.65;52.68
45403;BME280;47427;51.976;5.326;2022-10-04T08:11:56;102015.22;;;21.58;51.27
45403;BME280;47427;51.976;5.326;2022-10-04T08:23:19;102024.50;;;24.84;45.58
45403;BME280;47427;51.976;5.326;2022-10-04T08:31:02;102010.97;;;26.43;41.56
45403;BME280;47427;51.976;5.326;2022-10-04T08:38:53;102006.38;;;25.55;41.54
45403;BME280;47427;51.976;5.326;2022-10-04T08:51:14;102015.50;;;27.57;37.65
45403;BME280;47427;51.976;5.326;2022-10-04T09:13:31;101994.16;;;28.15;35.81
45403;BME280;47427;51.976;5.326;2022-10-04T09:17:19;101994.50;;;28.34;35.12
45403;BME280;47427;51.976;5.326;2022-10-04T09:20:56;102004.69;;;28.84;35.52
45403;BME280;47427;51.976;5.326;2022-10-04T09:44:51;101994.41;;;30.01;32.22
45403;BME280;47427;51.976;5.326;2022-10-04T09:53:11;101985.16;;;27.12;35.38
45403;BME280;47427;51.976;5.326;2022-10-04T09:57:14;101975.97;;;29.88;33.43
45403;BME280;47427;51.976;5.326;2022-10-04T10:01:04;101976.63;;;31.73;29.62
45403;BME280;47427;51.976;5.326;2022-10-04T10:25:43;101957.97;;;33.36;27.35
45403;BME280;47427;51.976;5.326;2022-10-04T10:29:36;101953.38;;;34.22;26.21
45403;BME280;47427;51.976;5.326;2022-10-04T11:00:23;101935.53;;;27.56;32.57
45403;BME280;47427;51.976;5.326;2022-10-04T11:07:48;101922.38;;;32.70;26.73
45403;BME280;47427;51.976;5.326;2022-10-04T11:15:54;101919.63;;;36.49;23.43
45403;BME280;47427;51.976;5.326;2022-10-04T11:23:44;101927.22;;;34.67;23.74
45403;BME280;47427;51.976;5.326;2022-10-04T11:27:48;101911.19;;;29.08;29.70
45403;BME280;47427;51.976;5.326;2022-10-04T11:35:37;101904.13;;;28.47;32.50
45403;BME280;47427;51.976;5.326;2022-10-04T11:55:34;101883.19;;;25.78;37.13
45403;BME280;47427;51.976;5.326;2022-10-04T12:10:44;101876.97;;;26.18;36.36
45403;BME280;47427;51.976;5.326;2022-10-04T12:22:36;101875.47;;;30.44;30.17
45403;BME280;47427;51.976;5.326;2022-10-04T12:30:24;101855.22;;;32.72;27.16
45403;BME280;47427;51.976;5.326;2022-10-04T12:49:11;101838.13;;;37.08;21.40
45403;BME280;47427;51.976;5.326;2022-10-04T12:53:11;101834.22;;;34.88;23.05
45403;BME280;47427;51.976;5.326;2022-10-04T13:00:22;101820.69;;;31.43;25.75
45403;BME280;47427;51.976;5.326;2022-10-04T13:15:33;101809.94;;;36.54;21.02
45403;BME280;47427;51.976;5.326;2022-10-04T13:19:11;101821.06;;;35.68;20.32
45403;BME280;47427;51.976;5.326;2022-10-04T13:23:12;101821.13;;;36.23;21.86
45403;BME280;47427;51.976;5.326;2022-10-04T13:26:45;101815.00;;;36.33;20.62
45403;BME280;47427;51.976;5.326;2022-10-04T13:30:22;101823.22;;;35.04;22.68
45403;BME280;47427;51.976;5.326;2022-10-04T13:33:50;101805.78;;;33.66;23.50
45403;BME280;47427;51.976;5.326;2022-10-04T13:45:33;101772.16;;;33.99;23.47
45403;BME280;47427;51.976;5.326;2022-10-04T13:53:08;101745.41;;;32.22;26.17
45403;BME280;47427;51.976;5.326;2022-10-04T13:57:27;101741.06;;;31.44;27.31
45403;BME280;47427;51.976;5.326;2022-10-04T14:21:12;101722.75;;;30.04;29.92
45403;BME280;47427;51.976;5.326;2022-10-04T15:00:24;101728.66;;;26.68;36.18
45403;BME280;47427;51.976;5.326;2022-10-04T15:07:43;101719.31;;;24.37;40.77
45403;BME280;47427;51.976;5.326;2022-10-04T15:11:36;101741.19;;;23.47;43.45
45403;BME280;47427;51.976;5.326;2022-10-04T15:19:01;101727.63;;;22.82;45.47
45403;BME280;47427;51.976;5.326;2022-10-04T15:22:37;101742.88;;;22.71;45.92
45403;BME280;47427;51.976;5.326;2022-10-04T15:31:12;101745.34;;;21.81;48.50
45403;BME280;47427;51.976;5.326;2022-10-04T15:34:48;101744.69;;;21.42;49.97
45403;BME280;47427;51.976;5.326;2022-10-04T15:38:48;101730.44;;;21.31;50.00
45403;BME280;47427;51.976;5.326;2022-10-04T15:42:36;101727.88;;;21.00;51.41
45403;BME280;47427;51.976;5.326;2022-10-04T15:50:09;101725.28;;;20.70;52.63
45403;BME280;47427;51.976;5.326;2022-10-04T16:05:28;101711.94;;;20.30;55.24
45403;BME280;47427;51.976;5.326;2022-10-04T16:09:18;101719.97;;;20.24;55.64
45403;BME280;47427;51.976;5.326;2022-10-04T16:20:16;101735.91;;;19.99;56.97
45403;BME280;47427;51.976;5.326;2022-10-04T16:23:43;101732.38;;;19.91;57.78
45403;BME280;47427;51.976;5.326;2022-10-04T16:27:37;101746.47;;;19.62;58.42
45403;BME280;47427;51.976;5.326;2022-10-04T16:35:31;101753.53;;;19.59;59.65
45403;BME280;47427;51.976;5.326;2022-10-04T16:38:58;101755.28;;;19.52;60.25
45403;BME280;47427;51.976;5.326;2022-10-04T16:42:56;101745.50;;;19.49;60.54
45403;BME280;47427;51.976;5.326;2022-10-04T16:46:38;101750.72;;;19.26;60.52
45403;BME280;47427;51.976;5.326;2022-10-04T16:50:10;101756.13;;;19.37;62.00
45403;BME280;47427;51.976;5.326;2022-10-04T16:53:59;101753.47;;;19.42;61.99
45403;BME280;47427;51.976;5.326;2022-10-04T16:57:25;101754.31;;;19.30;61.95
45403;BME280;47427;51.976;5.326;2022-10-04T17:00:48;101761.41;;;19.25;62.83
45403;BME280;47427;51.976;5.326;2022-10-04T17:12:09;101752.22;;;18.78;63.27
45403;BME280;47427;51.976;5.326;2022-10-04T17:16:03;101756.41;;;18.47;64.44
45403;BME280;47427;51.976;5.326;2022-10-04T17:19:42;101765.25;;;18.45;65.00
45403;BME280;47427;51.976;5.326;2022-10-04T17:47:08;101769.53;;;18.26;66.13
45403;BME280;47427;51.976;5.326;2022-10-04T17:54:57;101762.38;;;18.22;67.27
45403;BME280;47427;51.976;5.326;2022-10-04T17:58:46;101769.28;;;18.04;67.33
45403;BME280;47427;51.976;5.326;2022-10-04T18:02:58;101756.91;;;18.05;67.79
45403;BME280;47427;51.976;5.326;2022-10-04T18:06:48;101750.63;;;17.96;67.74
45403;BME280;47427;51.976;5.326;2022-10-04T18:10:36;101748.06;;;18.06;68.03
45403;BME280;47427;51.976;5.326;2022-10-04T18:14:11;101737.34;;;17.96;68.53
45403;BME280;47427;51.976;5.326;2022-10-04T18:17:45;101734.78;;;18.04;68.39
45403;BME280;47427;51.976;5.326;2022-10-04T18:21:28;101744.31;;;17.84;68.89
45403;BME280;47427;51.976;5.326;2022-10-04T18:25:18;101744.28;;;17.81;69.60
45403;BME280;47427;51.976;5.326;2022-10-04T18:28:47;101748.72;;;17.85;69.19
45403;BME280;47427;51.976;5.326;2022-10-04T18:36:02;101754.06;;;17.86;69.51
45403;BME280;47427;51.976;5.326;2022-10-04T18:39:25;101737.22;;;17.83;69.65
45403;BME280;47427;51.976;5.326;2022-10-04T18:42:56;101741.63;;;17.82;69.45
45403;BME280;47427;51.976;5.326;2022-10-04T18:46:20;101754.59;;;17.59;70.51
45403;BME280;47427;51.976;5.326;2022-10-04T18:49:52;101752.00;;;17.64;70.72
45403;BME280;47427;51.976;5.326;2022-10-04T18:57:43;101738.72;;;17.62;70.48
45403;BME280;47427;51.976;5.326;2022-10-04T19:06:13;101742.91;;;17.43;71.46
45403;BME280;47427;51.976;5.326;2022-10-04T19:14:58;101736.75;;;17.46;71.37
45403;BME280;47427;51.976;5.326;2022-10-04T19:22:58;101718.00;;;17.30;72.28
45403;BME280;47427;51.976;5.326;2022-10-04T19:26:58;101698.38;;;17.16;72.21
45403;BME280;47427;51.976;5.326;2022-10-04T19:30:31;101694.78;;;17.14;72.98
45403;BME280;47427;51.976;5.326;2022-10-04T19:34:06;101698.47;;;17.24;72.85
45403;BME280;47427;51.976;5.326;2022-10-04T19:42:03;101691.13;;;17.03;73.68
45403;BME280;47427;51.976;5.326;2022-10-04T19:53:23;101699.94;;;17.00;73.74
45403;BME280;47427;51.976;5.326;2022-10-04T19:56:49;101699.13;;;17.06;73.62
45403;BME280;47427;51.976;5.326;2022-10-04T20:00:12;101695.34;;;16.87;74.68
45403;BME280;47427;51.976;5.326;2022-10-04T20:03:35;101696.19;;;16.84;74.71
45403;BME280;47427;51.976;5.326;2022-10-04T20:07:00;101691.06;;;16.98;74.22
45403;BME280;47427;51.976;5.326;2022-10-04T20:10:36;101701.44;;;16.80;74.53
45403;BME280;47427;51.976;5.326;2022-10-04T20:17:32;101712.06;;;16.81;74.76
45403;BME280;47427;51.976;5.326;2022-10-04T20:24:17;101714.81;;;16.89;74.58
45403;BME280;47427;51.976;5.326;2022-10-04T20:27:59;101704.25;;;16.94;74.72
45403;BME280;47427;51.976;5.326;2022-10-04T20:34:53;101707.47;;;16.73;75.01
45403;BME280;47427;51.976;5.326;2022-10-04T20:38:16;101692.47;;;16.75;74.78
45403;BME280;47427;51.976;5.326;2022-10-04T20:41:41;101700.50;;;16.78;74.80
45403;BME280;47427;51.976;5.326;2022-10-04T20:45:23;101707.44;;;16.69;74.73
45403;BME280;47427;51.976;5.326;2022-10-04T20:48:45;101695.06;;;16.68;74.74
45403;BME280;47427;51.976;5.326;2022-10-04T20:52:14;101709.00;;;16.58;75.56
45403;BME280;47427;51.976;5.326;2022-10-04T20:55:37;101714.31;;;16.58;75.56
45403;BME280;47427;51.976;5.326;2022-10-04T20:59:02;101718.69;;;16.55;75.67
45403;BME280;47427;51.976;5.326;2022-10-04T21:02:25;101714.19;;;16.49;76.19
45403;BME280;47427;51.976;5.326;2022-10-04T21:06:09;101722.16;;;16.52;75.93
45403;BME280;47427;51.976;5.326;2022-10-04T21:09:34;101724.78;;;16.51;76.05
45403;BME280;47427;51.976;5.326;2022-10-04T21:12:56;101731.03;;;16.54;76.17
45403;BME280;47427;51.976;5.326;2022-10-04T21:16:45;101736.19;;;16.45;76.49
45403;BME280;47427;51.976;5.326;2022-10-04T21:24:35;101734.44;;;16.47;76.40
45403;BME280;47427;51.976;5.326;2022-10-04T21:28:36;101741.59;;;16.53;76.13
45403;BME280;47427;51.976;5.326;2022-10-04T21:31:58;101749.47;;;16.46;76.38
45403;BME280;47427;51.976;5.326;2022-10-04T21:35:21;101737.97;;;16.47;76.62
45403;BME280;47427;51.976;5.326;2022-10-04T21:38:42;101746.94;;;16.54;76.50
45403;BME280;47427;51.976;5.326;2022-10-04T21:42:05;101739.91;;;16.56;76.19
45403;BME280;47427;51.976;5.326;2022-10-04T21:45:28;101746.91;;;16.53;76.68
45403;BME280;47427;51.976;5.326;2022-10-04T21:48:50;101743.38;;;16.52;76.29
45403;BME280;47427;51.976;5.326;2022-10-04T21:52:13;101742.41;;;16.47;76.66
45403;BME280;47427;51.976;5.326;2022-10-04T21:55:39;101729.13;;;16.45;76.83
45403;BME280;47427;51.976;5.326;2022-10-04T21:59:02;101718.34;;;16.35;77.27
45403;BME280;47427;51.976;5.326;2022-10-04T22:02:25;101721.75;;;16.28;77.53
45403;BME280;47427;51.976;5.326;2022-10-04T22:05:46;101708.59;;;16.31;77.66
45403;BME280;47427;51.976;5.326;2022-10-04T22:09:09;101721.63;;;16.20;78.26
45403;BME280;47427;51.976;5.326;2022-10-04T22:12:31;101716.34;;;16.20;78.24
45403;BME280;47427;51.976;5.326;2022-10-04T22:15:54;101718.97;;;16.18;78.47
45403;BME280;47427;51.976;5.326;2022-10-04T22:19:17;101704.06;;;16.25;78.15
45403;BME280;47427;51.976;5.326;2022-10-04T22:22:39;101706.72;;;16.25;78.13
45403;BME280;47427;51.976;5.326;2022-10-04T22:26:01;101701.38;;;16.22;77.81
45403;BME280;47427;51.976;5.326;2022-10-04T22:29:25;101702.16;;;16.16;78.58
45403;BME280;47427;51.976;5.326;2022-10-04T22:32:48;101692.47;;;16.17;78.57
45403;BME280;47427;51.976;5.326;2022-10-04T22:36:25;101685.41;;;16.16;78.46
45403;BME280;47427;51.976;5.326;2022-10-04T22:39:50;101679.13;;;16.12;78.70
45403;BME280;47427;51.976;5.326;2022-10-04T22:43:14;101684.44;;;16.11;78.97
45403;BME280;47427;51.976;5.326;2022-10-04T22:46:40;101683.63;;;16.18;78.85
45403;BME280;47427;51.976;5.326;2022-10-04T22:50:40;101684.41;;;16.09;79.04
45403;BME280;47427;51.976;5.326;2022-10-04T22:54:20;101685.16;;;16.02;79.52
45403;BME280;47427;51.976;5.326;2022-10-04T22:57:44;101672.88;;;16.06;79.51
45403;BME280;47427;51.976;5.326;2022-10-04T23:01:16;101672.03;;;16.08;79.53
45403;BME280;47427;51.976;5.326;2022-10-04T23:04:42;101673.00;;;16.13;79.16
45403;BME280;47427;51.976;5.326;2022-10-04T23:08:05;101667.63;;;16.09;79.67
45403;BME280;47427;51.976;5.326;2022-10-04T23:11:30;101665.81;;;16.08;79.50
45403;BME280;47427;51.976;5.326;2022-10-04T23:14:53;101664.00;;;16.05;79.44
45403;BME280;47427;51.976;5.326;2022-10-04T23:18:17;101657.84;;;16.03;79.44
45403;BME280;47427;51.976;5.326;2022-10-04T23:21:43;101649.84;;;16.01;79.56
45403;BME280;47427;51.976;5.326;2022-10-04T23:25:30;101660.53;;;16.06;79.47
45403;BME280;47427;51.976;5.326;2022-10-04T23:28:53;101673.63;;;16.00;79.77
45403;BME280;47427;51.976;5.326;2022-10-04T23:32:16;101673.72;;;16.03;79.54
45403;BME280;47427;51.976;5.326;2022-10-04T23:35:40;101679.00;;;16.03;79.54
45403;BME280;47427;51.976;5.326;2022-10-04T23:39:02;101679.00;;;16.04;79.41
45403;BME280;47427;51.976;5.326;2022-10-04T23:42:27;101671.03;;;16.01;79.62
45403;BME280;47427;51.976;5.326;2022-10-04T23:45:53;101668.28;;;15.95;80.30
45403;BME280;47427;51.976;5.326;2022-10-04T23:49:17;101666.56;;;15.99;80.13
45403;BME280;47427;51.976;5.326;2022-10-04T23:52:41;101661.31;;;16.00;79.83
45403;BME280;47427;51.976;5.326;2022-10-04T23:56:15;101658.72;;;16.05;79.98
45403;BME280;47427;51.976;5.326;2022-10-04T23:59:38;101659.66;;;16.07;79.57
